Time;durP1;ratioP1;P1;durP2;ratioP2;P2;SDS_P1;SDS_P2;PMS_P1;PMS_P2;Temp;Humidity;BMP_temperature;BMP_pressure;BME280_temperature;BME280_humidity;BME280_pressure;Samples;Min_cycle;Max_cycle;Signal;HPM_P1;HPM_P2
2023/12/25 00:00:40;;;;;;;2.72;2.50;;;;;;;13.24;100.00;100491.06;5286883;28;20028;-81
2023/12/25 00:03:12;;;;;;;3.45;2.42;;;;;;;13.18;100.00;100474.03;5286465;28;20034;-81
2023/12/25 00:05:44;;;;;;;2.25;2.03;;;;;;;13.22;100.00;100483.28;5286063;28;20032;-81
2023/12/25 00:08:15;;;;;;;2.08;1.70;;;;;;;13.22;100.00;100480.66;5289710;28;20035;-81
2023/12/25 00:10:47;;;;;;;2.47;1.70;;;;;;;13.18;100.00;100476.66;5287670;28;20032;-81
2023/12/25 00:13:19;;;;;;;1.65;1.33;;;;;;;13.14;100.00;100475.34;5285811;28;20081;-81
2023/12/25 00:15:51;;;;;;;3.17;1.52;;;;;;;13.23;100.00;100490.22;5286681;28;20032;-81
2023/12/25 00:18:23;;;;;;;2.28;1.58;;;;;;;13.19;100.00;100469.63;5289812;28;20038;-82
2023/12/25 00:20:55;;;;;;;2.10;1.45;;;;;;;13.17;100.00;100463.69;5282515;28;20050;-82
2023/12/25 00:23:27;;;;;;;2.38;2.03;;;;;;;13.18;100.00;100455.63;5287118;28;20044;-82
2023/12/25 00:25:59;;;;;;;2.97;1.80;;;;;;;13.20;100.00;100468.63;5285553;28;20041;-82
2023/12/25 00:28:30;;;;;;;4.20;2.03;;;;;;;13.14;100.00;100449.88;5286724;28;20066;-81
2023/12/25 00:31:02;;;;;;;4.25;1.90;;;;;;;13.19;100.00;100475.72;5286213;28;20030;-81
2023/12/25 00:33:34;;;;;;;2.00;1.80;;;;;;;13.19;100.00;100462.56;5287638;28;20485;-82
2023/12/25 00:36:06;;;;;;;2.13;1.70;;;;;;;13.16;100.00;100460.22;5286327;28;20025;-82
2023/12/25 00:38:38;;;;;;;4.93;2.35;;;;;;;13.17;100.00;100450.53;5286639;28;20043;-82
2023/12/25 00:41:10;;;;;;;3.33;2.03;;;;;;;13.17;100.00;100461.06;5283828;28;20039;-82
2023/12/25 00:43:42;;;;;;;3.45;2.00;;;;;;;13.13;100.00;100460.53;5290344;28;20374;-82
2023/12/25 00:46:16;;;;;;;3.17;2.13;;;;;;;13.22;100.00;100464.88;5283994;28;20040;-81
2023/12/25 00:48:48;;;;;;;2.47;1.95;;;;;;;13.12;100.00;100470.25;5286273;28;20385;-81
2023/12/25 00:51:20;;;;;;;3.40;2.25;;;;;;;13.24;100.00;100485.78;5288420;28;20047;-81
2023/12/25 00:53:53;;;;;;;2.72;2.03;;;;;;;13.23;100.00;100494.63;5264892;28;20052;-82
2023/12/25 00:56:25;;;;;;;2.40;2.20;;;;;;;13.33;100.00;100487.47;5284665;28;20028;-82
2023/12/25 00:58:57;;;;;;;3.25;2.20;;;;;;;13.31;100.00;100500.78;5286282;28;20425;-82
2023/12/25 01:01:29;;;;;;;2.88;1.98;;;;;;;13.21;100.00;100491.31;5286149;28;20067;-82
2023/12/25 01:04:01;;;;;;;2.67;2.08;;;;;;;13.15;100.00;100485.72;5284148;28;20035;-81
2023/12/25 01:06:32;;;;;;;2.92;1.73;;;;;;;13.18;100.00;100489.81;5286627;28;20029;-82
2023/12/25 01:09:04;;;;;;;2.80;1.98;;;;;;;13.12;100.00;100499.16;5282684;28;20047;-82
2023/12/25 01:11:40;;;;;;;3.22;2.42;;;;;;;13.16;100.00;100494.44;5287749;28;20031;-83
2023/12/25 01:14:12;;;;;;;5.65;1.90;;;;;;;13.08;100.00;100510.97;5291285;28;20036;-82
2023/12/25 01:16:44;;;;;;;6.00;2.17;;;;;;;13.02;100.00;100487.91;5287312;28;20020;-82
2023/12/25 01:19:16;;;;;;;2.95;1.95;;;;;;;12.99;100.00;100492.66;5286600;28;20043;-82
2023/12/25 01:21:48;;;;;;;2.33;1.88;;;;;;;13.04;100.00;100501.75;5286428;28;20040;-82
2023/12/25 01:24:20;;;;;;;5.55;2.40;;;;;;;13.05;100.00;100497.31;5291675;28;20031;-81
2023/12/25 01:26:52;;;;;;;4.10;2.28;;;;;;;13.06;100.00;100498.97;5287019;28;20024;-82
2023/12/25 01:29:24;;;;;;;3.22;2.22;;;;;;;12.99;100.00;100496.09;5288128;28;20074;-82
2023/12/25 01:31:56;;;;;;;3.17;2.40;;;;;;;13.05;100.00;100498.13;5290923;28;20026;-82
2023/12/25 01:34:27;;;;;;;3.67;2.58;;;;;;;13.09;100.00;100509.16;5288214;28;20623;-83
2023/12/25 01:37:00;;;;;;;4.15;2.30;;;;;;;13.03;100.00;100494.84;5282053;28;20036;-82
2023/12/25 01:39:32;;;;;;;3.95;2.30;;;;;;;13.10;100.00;100503.75;5293164;28;20059;-81
2023/12/25 01:42:04;;;;;;;3.03;2.35;;;;;;;13.07;100.00;100498.00;5292746;28;20036;-82
2023/12/25 01:44:36;;;;;;;3.30;2.88;;;;;;;13.07;100.00;100493.56;5289025;28;20508;-82
2023/12/25 01:47:08;;;;;;;3.83;3.38;;;;;;;12.95;100.00;100500.03;5291989;28;20034;-82
2023/12/25 01:49:40;;;;;;;3.55;3.10;;;;;;;13.03;100.00;100500.13;5278857;28;20083;-81
2023/12/25 01:52:12;;;;;;;3.75;3.33;;;;;;;13.07;100.00;100498.00;5289547;28;20031;-81
2023/12/25 01:54:45;;;;;;;3.55;3.10;;;;;;;13.08;100.00;100507.53;5291170;28;20031;-81
2023/12/25 01:57:17;;;;;;;4.43;3.43;;;;;;;13.03;100.00;100494.84;5288284;28;20043;-82
2023/12/25 01:59:48;;;;;;;4.35;3.38;;;;;;;13.09;100.00;100504.72;5285776;28;20764;-82
2023/12/25 02:02:22;;;;;;;4.30;3.70;;;;;;;13.07;100.00;100509.34;5289750;28;20032;-82
2023/12/25 02:04:54;;;;;;;4.35;3.67;;;;;;;13.07;100.00;100508.53;5291483;28;20020;-82
2023/12/25 02:07:27;;;;;;;3.55;3.25;;;;;;;13.06;100.00;100506.84;5291323;28;20035;-82
2023/12/25 02:09:59;;;;;;;3.95;3.42;;;;;;;13.10;100.00;100524.78;5286079;28;20044;-82
2023/12/25 02:12:31;;;;;;;4.30;3.33;;;;;;;13.01;100.00;100506.50;5287132;28;20036;-83
2023/12/25 02:15:03;;;;;;;4.10;3.45;;;;;;;13.03;100.00;100515.88;5285311;28;20119;-83
2023/12/25 02:17:35;;;;;;;4.65;4.10;;;;;;;13.06;100.00;100535.78;5285721;28;20028;-82
2023/12/25 02:20:07;;;;;;;4.43;4.03;;;;;;;13.10;100.00;100530.03;5284925;28;20103;-82
2023/12/25 02:22:40;;;;;;;4.65;4.13;;;;;;;13.15;100.00;100540.13;5291877;28;20047;-82
2023/12/25 02:25:13;;;;;;;;;;;;;;;13.68;100.00;100536.50;5290399;28;20025;-82
2023/12/25 02:27:45;;;;;;;4.38;3.97;;;;;;;13.22;100.00;100525.38;5287968;28;19920;-82
2023/12/25 02:30:17;;;;;;;4.28;3.88;;;;;;;13.19;100.00;100522.22;5291386;28;20034;-82
2023/12/25 02:32:49;;;;;;;3.72;3.38;;;;;;;13.18;100.00;100531.91;5288625;28;20038;-82
2023/12/25 02:35:22;;;;;;;5.28;3.13;;;;;;;13.14;100.00;100535.81;5288775;28;20547;-82
2023/12/25 02:37:53;;;;;;;5.13;4.18;;;;;;;13.24;100.00;100530.50;5290847;28;21409;-82
2023/12/25 02:40:25;;;;;;;4.82;3.50;;;;;;;13.25;100.00;100517.19;5291168;28;20035;-82
2023/12/25 02:42:57;;;;;;;4.05;3.65;;;;;;;13.24;100.00;100523.44;5285452;28;20034;-82
2023/12/25 02:45:29;;;;;;;4.78;3.78;;;;;;;13.27;100.00;100541.53;5290404;28;20047;-81
2023/12/25 02:48:01;;;;;;;5.55;3.92;;;;;;;13.29;100.00;100534.31;5287957;28;20024;-81
2023/12/25 02:50:33;;;;;;;4.35;3.58;;;;;;;13.35;100.00;100535.50;5290739;28;20036;-81
2023/12/25 02:53:05;;;;;;;4.47;3.90;;;;;;;13.29;100.00;100542.19;5289020;28;20031;-81
2023/12/25 02:55:39;;;;;;;4.05;3.75;;;;;;;13.32;100.00;100543.72;5289266;28;20079;-82
2023/12/25 02:58:11;;;;;;;4.63;3.80;;;;;;;13.27;100.00;100559.13;5286510;28;20020;-82
2023/12/25 03:00:42;;;;;;;4.93;3.97;;;;;;;13.31;100.00;100560.47;5287757;28;20040;-83
2023/12/25 03:03:14;;;;;;;4.05;3.75;;;;;;;13.33;100.00;100556.72;5291230;28;20032;-83
2023/12/25 03:05:46;;;;;;;4.25;3.83;;;;;;;13.29;100.00;100539.56;5287204;28;20090;-83
2023/12/25 03:08:18;;;;;;;5.15;3.97;;;;;;;13.37;100.00;100549.31;5289116;28;20032;-83
2023/12/25 03:10:50;;;;;;;4.15;3.85;;;;;;;13.30;100.00;100540.44;5287167;28;20042;-82
2023/12/25 03:13:22;;;;;;;5.05;3.88;;;;;;;13.36;100.00;100540.59;5290242;28;20038;-82
2023/12/25 03:15:54;;;;;;;4.00;3.70;;;;;;;13.35;100.00;100546.84;5287980;28;20032;-83
2023/12/25 03:18:26;;;;;;;4.05;3.65;;;;;;;13.35;100.00;100538.97;5289569;28;20500;-82
2023/12/25 03:20:57;;;;;;;3.90;3.55;;;;;;;13.37;100.00;100542.28;5287979;28;20396;-82
2023/12/25 03:23:29;;;;;;;4.35;3.65;;;;;;;13.30;100.00;100532.53;5283439;28;20036;-82
2023/12/25 03:26:02;;;;;;;4.18;3.30;;;;;;;13.34;100.00;100550.47;5285683;28;20032;-83
2023/12/25 03:28:33;;;;;;;4.10;3.70;;;;;;;13.30;100.00;100535.97;5286973;28;20024;-83
2023/12/25 03:31:07;;;;;;;4.55;3.83;;;;;;;13.39;100.00;100531.59;5285274;28;20393;-82
2023/12/25 03:33:39;;;;;;;4.45;4.05;;;;;;;13.34;100.00;100533.88;5285407;28;20067;-82
2023/12/25 03:36:11;;;;;;;4.50;4.07;;;;;;;13.34;100.00;100558.38;5286140;28;20025;-82
2023/12/25 03:38:43;;;;;;;4.22;3.65;;;;;;;13.41;100.00;100553.31;5287979;28;20039;-82
2023/12/25 03:41:14;;;;;;;3.90;3.50;;;;;;;13.41;100.00;100552.47;5286898;28;20025;-81
2023/12/25 03:43:46;;;;;;;4.53;3.35;;;;;;;13.39;100.00;100558.72;5287200;28;20032;-81
2023/12/25 03:46:18;;;;;;;4.30;3.70;;;;;;;13.38;100.00;100564.16;5290060;28;20077;-82
2023/12/25 03:48:50;;;;;;;5.28;3.67;;;;;;;13.32;100.00;100547.16;5286630;28;20040;-82
2023/12/25 03:51:22;;;;;;;4.05;3.10;;;;;;;13.31;100.00;100563.13;5287580;28;20021;-81
2023/12/25 03:53:54;;;;;;;4.05;3.17;;;;;;;13.22;100.00;100562.22;5285516;28;20048;-82
2023/12/25 03:56:26;;;;;;;3.15;2.70;;;;;;;13.21;100.00;100564.97;5285716;28;20033;-81
2023/12/25 03:58:57;;;;;;;2.67;2.47;;;;;;;13.19;100.00;100572.22;5286527;28;20526;-82
2023/12/25 04:01:30;;;;;;;2.70;2.50;;;;;;;13.19;100.00;100566.94;5285786;28;20441;-82
2023/12/25 04:04:01;;;;;;;3.38;2.53;;;;;;;13.29;100.00;100579.03;5279710;28;20452;-82
2023/12/25 04:06:33;;;;;;;3.15;2.38;;;;;;;13.24;100.00;100577.84;5280679;28;20042;-82
2023/12/25 04:09:05;;;;;;;3.45;2.65;;;;;;;13.20;100.00;100566.78;5279923;28;20046;-82
2023/12/25 04:11:37;;;;;;;3.75;2.47;;;;;;;13.22;100.00;100575.38;5278651;28;20390;-82
2023/12/25 04:14:09;;;;;;;3.15;2.63;;;;;;;13.22;100.00;100572.72;5279788;28;20033;-82
2023/12/25 04:16:41;;;;;;;3.55;2.67;;;;;;;13.20;100.00;100564.16;5281808;28;20027;-82
2023/12/25 04:19:13;;;;;;;3.40;2.42;;;;;;;13.22;100.00;100575.38;5281381;28;20024;-82
2023/12/25 04:21:45;;;;;;;2.47;2.28;;;;;;;13.23;100.00;100565.66;5283266;28;20027;-82
2023/12/25 04:24:17;;;;;;;2.28;2.08;;;;;;;13.20;100.00;100553.63;5280702;28;20492;-82
2023/12/25 04:26:48;;;;;;;2.50;1.98;;;;;;;13.23;100.00;100557.78;5281247;28;20066;-81
2023/12/25 04:29:20;;;;;;;2.95;1.83;;;;;;;13.22;100.00;100553.47;5280783;28;20038;-82
2023/12/25 04:31:52;;;;;;;2.58;1.90;;;;;;;13.17;100.00;100551.31;5282322;28;20281;-83
2023/12/25 04:34:24;;;;;;;2.20;1.73;;;;;;;13.17;100.00;100556.56;5282929;28;20484;-82
2023/12/25 04:36:56;;;;;;;2.10;1.77;;;;;;;13.20;100.00;100553.63;5266194;28;20466;-82
2023/12/25 04:39:28;;;;;;;3.65;1.67;;;;;;;13.23;100.00;100548.09;5285455;28;20027;-82
2023/12/25 04:42:01;;;;;;;2.00;1.35;;;;;;;13.18;100.00;100539.78;5281673;28;20036;-82
2023/12/25 04:44:33;;;;;;;2.00;1.45;;;;;;;13.19;100.00;100541.47;5282179;28;20039;-82
2023/12/25 04:47:05;;;;;;;2.40;1.50;;;;;;;13.19;100.00;100544.09;5281623;28;20039;-81
2023/12/25 04:49:37;;;;;;;2.67;1.35;;;;;;;13.20;100.00;100550.19;5279365;28;20040;-81
2023/12/25 04:52:09;;;;;;;2.00;1.15;;;;;;;13.20;100.00;100527.31;5281818;28;20066;-81
2023/12/25 04:54:40;;;;;;;2.67;1.50;;;;;;;13.18;100.00;100537.16;5279192;28;20044;-82
2023/12/25 04:57:12;;;;;;;1.88;1.30;;;;;;;13.17;100.00;100546.03;5280259;28;20028;-81
2023/12/25 04:59:44;;;;;;;2.58;1.50;;;;;;;13.15;100.00;100526.97;5280117;28;20043;-81
2023/12/25 05:02:16;;;;;;;2.25;1.98;;;;;;;13.10;100.00;100510.81;5280540;28;20036;-81
2023/12/25 05:04:48;;;;;;;2.30;2.10;;;;;;;13.10;100.00;100526.59;5281597;28;20288;-81
2023/12/25 05:07:20;;;;;;;2.50;2.17;;;;;;;13.10;100.00;100534.47;5282215;28;20044;-81
2023/12/25 05:09:52;;;;;;;4.73;2.50;;;;;;;13.12;100.00;100520.22;5279462;28;20021;-82
2023/12/25 05:12:24;;;;;;;3.00;2.70;;;;;;;13.11;100.00;100520.38;5263967;28;20028;-81
2023/12/25 05:14:56;;;;;;;3.08;2.55;;;;;;;13.01;100.00;100522.28;5283920;28;20126;-81
2023/12/25 05:17:28;;;;;;;3.03;2.38;;;;;;;13.04;100.00;100525.41;5281395;28;20034;-82
2023/12/25 05:20:00;;;;;;;2.55;2.35;;;;;;;13.03;100.00;100536.06;5279840;28;20040;-82
2023/12/25 05:22:31;;;;;;;2.80;2.42;;;;;;;13.08;100.00;100536.47;5281084;28;20037;-81
2023/12/25 05:25:04;;;;;;;2.47;2.28;;;;;;;13.12;100.00;100532.53;5277226;28;20054;-82
2023/12/25 05:27:36;;;;;;;2.83;2.25;;;;;;;13.12;100.00;100525.47;5278846;28;20036;-82
2023/12/25 05:30:10;;;;;;;2.58;2.38;;;;;;;13.13;100.00;100526.28;5274136;28;20048;-83
2023/12/25 05:32:42;;;;;;;3.40;3.10;;;;;;;13.01;100.00;100522.28;5281348;28;20043;-83
2023/12/25 05:35:14;;;;;;;3.63;2.90;;;;;;;13.06;100.00;100530.50;5279781;28;20535;-82
2023/12/25 05:37:46;;;;;;;3.90;3.20;;;;;;;13.02;100.00;100519.47;5279703;28;20035;-82
2023/12/25 05:40:18;;;;;;;3.33;3.03;;;;;;;12.96;100.00;100521.91;5279327;28;20028;-82
2023/12/25 05:42:50;;;;;;;3.67;2.90;;;;;;;12.97;100.00;100526.19;5277484;28;20034;-82
2023/12/25 05:45:23;;;;;;;3.30;3.00;;;;;;;12.88;100.00;100518.25;5280064;28;20042;-82
2023/12/25 05:47:55;;;;;;;3.80;3.33;;;;;;;12.97;100.00;100534.91;5282135;28;20036;-82
2023/12/25 05:50:26;;;;;;;3.03;2.72;;;;;;;13.00;100.00;100529.34;5280041;28;20398;-82
2023/12/25 05:52:58;;;;;;;4.07;3.20;;;;;;;13.02;100.00;100539.69;5279894;28;20036;-82
2023/12/25 05:55:30;;;;;;;3.50;2.30;;;;;;;13.01;100.00;100523.09;5280685;28;20044;-82
2023/12/25 05:58:03;;;;;;;2.60;2.40;;;;;;;12.99;100.00;100514.50;5284205;28;20028;-83
2023/12/25 06:00:34;;;;;;;2.87;2.60;;;;;;;13.04;100.00;100532.50;5283666;28;20361;-82
2023/12/25 06:03:06;;;;;;;2.53;2.33;;;;;;;12.98;100.00;100527.84;5281976;28;20277;-82
2023/12/25 06:05:38;;;;;;;3.20;2.90;;;;;;;13.02;100.00;100529.16;5284007;28;20040;-82
2023/12/25 06:08:10;;;;;;;2.72;2.47;;;;;;;12.94;100.00;100537.81;5283141;28;20028;-82
2023/12/25 06:10:42;;;;;;;3.28;2.97;;;;;;;12.95;100.00;100534.22;5284034;28;20493;-82
2023/12/25 06:13:14;;;;;;;3.13;2.80;;;;;;;12.97;100.00;100541.97;5281348;28;20382;-82
2023/12/25 06:15:48;;;;;;;3.47;2.70;;;;;;;12.97;100.00;100527.00;5284310;28;20640;-82
2023/12/25 06:18:20;;;;;;;3.08;2.42;;;;;;;12.96;100.00;100532.44;5284262;28;20037;-82
2023/12/25 06:20:52;;;;;;;2.63;2.42;;;;;;;13.00;100.00;100536.41;5285666;28;20032;-82
2023/12/25 06:23:24;;;;;;;2.78;2.13;;;;;;;13.02;100.00;100539.69;5282523;28;20110;-82
2023/12/25 06:25:56;;;;;;;2.30;2.10;;;;;;;13.03;100.00;100547.44;5282718;28;20032;-82
2023/12/25 06:28:28;;;;;;;2.08;1.88;;;;;;;13.10;100.00;100534.47;5282773;28;20487;-81
2023/12/25 06:30:59;;;;;;;2.00;1.75;;;;;;;13.10;100.00;100522.16;5283616;28;20031;-82
2023/12/25 06:33:33;;;;;;;2.10;1.90;;;;;;;13.06;100.00;100527.88;5282639;28;20040;-81
2023/12/25 06:36:05;;;;;;;2.53;2.08;;;;;;;13.02;100.00;100535.25;5282860;28;20028;-81
2023/12/25 06:38:37;;;;;;;2.95;2.10;;;;;;;13.06;100.00;100535.78;5281580;28;20055;-82
2023/12/25 06:41:12;;;;;;;3.05;2.00;;;;;;;13.08;100.00;100528.56;5281518;28;20036;-81
2023/12/25 06:43:44;;;;;;;2.15;1.95;;;;;;;13.03;100.00;100534.31;5282464;28;20027;-82
2023/12/25 06:46:16;;;;;;;2.10;1.90;;;;;;;13.05;100.00;100528.88;5284094;28;20028;-81
2023/12/25 06:48:47;;;;;;;3.15;2.60;;;;;;;13.07;100.00;100532.19;5281900;28;20081;-81
2023/12/25 06:51:19;;;;;;;2.67;2.47;;;;;;;13.00;100.00;100524.09;5281940;28;20041;-82
2023/12/25 06:53:51;;;;;;;2.50;2.30;;;;;;;13.09;100.00;100536.28;5283096;28;20058;-82
2023/12/25 06:56:23;;;;;;;3.10;2.75;;;;;;;13.06;100.00;100543.66;5284250;28;20028;-81
2023/12/25 06:58:55;;;;;;;2.92;2.50;;;;;;;13.06;100.00;100528.69;5281883;28;20024;-81
2023/12/25 07:01:27;;;;;;;3.15;2.45;;;;;;;13.07;100.00;100540.06;5283970;28;20040;-82
2023/12/25 07:03:59;;;;;;;2.88;2.58;;;;;;;13.08;100.00;100533.84;5282763;28;20032;-82
2023/12/25 07:06:31;;;;;;;2.95;2.67;;;;;;;13.05;100.00;100528.88;5282800;28;20032;-82
2023/12/25 07:09:03;;;;;;;3.30;3.00;;;;;;;13.04;100.00;100527.22;5280229;28;20048;-82
2023/12/25 07:11:35;;;;;;;3.72;3.15;;;;;;;12.97;100.00;100532.28;5284712;28;20033;-82
2023/12/25 07:14:08;;;;;;;3.73;3.43;;;;;;;13.02;100.00;100545.78;5284401;28;20485;-82
2023/12/25 07:16:40;;;;;;;3.90;3.60;;;;;;;13.05;100.00;100547.28;5280806;28;20203;-82
2023/12/25 07:19:12;;;;;;;3.38;3.08;;;;;;;13.11;100.00;100551.94;5282509;28;20028;-82
2023/12/25 07:21:44;;;;;;;3.55;3.25;;;;;;;13.09;100.00;100552.06;5279738;28;20195;-82
2023/12/25 07:24:15;;;;;;;3.28;2.97;;;;;;;13.14;100.00;100557.72;5282447;28;20029;-82
2023/12/25 07:26:47;;;;;;;3.42;3.13;;;;;;;13.10;100.00;100566.88;5279701;28;20058;-82
2023/12/25 07:29:20;;;;;;;3.60;3.30;;;;;;;13.09;100.00;100557.34;5280698;28;20024;-82
2023/12/25 07:31:52;;;;;;;3.70;3.40;;;;;;;13.13;100.00;100568.38;5283374;28;20032;-83
2023/12/25 07:34:23;;;;;;;4.03;3.72;;;;;;;13.11;100.00;100567.72;5282975;28;20370;-82
2023/12/25 07:36:55;;;;;;;3.88;3.58;;;;;;;13.09;100.00;100567.84;5284796;28;20026;-82
2023/12/25 07:39:27;;;;;;;3.70;3.40;;;;;;;13.10;100.00;100576.56;5280859;28;20032;-82
2023/12/25 07:41:59;;;;;;;3.88;3.58;;;;;;;13.08;100.00;100570.66;5283564;28;20043;-82
2023/12/25 07:44:31;;;;;;;3.50;3.20;;;;;;;13.05;100.00;100579.66;5285193;28;20036;-82
2023/12/25 07:47:03;;;;;;;3.22;2.97;;;;;;;13.05;100.00;100582.28;5287768;28;20020;-82
2023/12/25 07:49:35;;;;;;;3.05;2.80;;;;;;;13.09;100.00;100590.72;5283638;28;20158;-82
2023/12/25 07:52:07;;;;;;;3.43;3.13;;;;;;;13.13;100.00;100586.78;5283795;28;20370;-82
2023/12/25 07:54:39;;;;;;;3.10;2.80;;;;;;;13.08;100.00;100586.44;5282204;28;20305;-82
2023/12/25 07:57:11;;;;;;;3.78;2.47;;;;;;;13.18;100.00;100594.22;5283975;28;20032;-82
2023/12/25 07:59:43;;;;;;;4.28;2.75;;;;;;;13.14;100.00;100593.69;5281742;28;20048;-82
2023/12/25 08:02:16;;;;;;;2.70;2.50;;;;;;;13.14;100.00;100602.44;5281910;28;20039;-82
2023/12/25 08:04:48;;;;;;;2.70;2.50;;;;;;;13.22;100.00;100603.44;5281101;28;20040;-82
2023/12/25 08:07:19;;;;;;;3.05;2.72;;;;;;;13.17;100.00;100610.97;5277785;28;20036;-82
2023/12/25 08:09:51;;;;;;;2.83;2.53;;;;;;;13.13;100.00;100616.53;5271649;28;20392;-82
2023/12/25 08:12:23;;;;;;;2.90;2.60;;;;;;;13.12;100.00;100621.97;5282586;28;20050;-82
2023/12/25 08:14:55;;;;;;;2.78;2.20;;;;;;;13.11;100.00;100612.44;5281855;28;20123;-82
2023/12/25 08:17:27;;;;;;;2.70;2.40;;;;;;;13.15;100.00;100629.56;5282503;28;20252;-82
2023/12/25 08:19:59;;;;;;;3.38;2.97;;;;;;;13.10;100.00;100643.16;5278038;28;20032;-82
2023/12/25 08:22:31;;;;;;;3.40;2.40;;;;;;;13.19;100.00;100633.53;5279901;28;20042;-82
2023/12/25 08:25:03;;;;;;;2.38;2.17;;;;;;;13.18;100.00;100638.94;5278851;28;20173;-82
2023/12/25 08:27:35;;;;;;;2.60;2.40;;;;;;;13.15;100.00;100637.44;5282910;28;20479;-82
2023/12/25 08:30:08;;;;;;;2.03;1.83;;;;;;;13.10;100.00;100632.63;5270190;28;20374;-82
2023/12/25 08:32:39;;;;;;;2.73;2.10;;;;;;;13.14;100.00;100628.75;5275481;28;20043;-82
2023/12/25 08:35:12;;;;;;;2.40;2.20;;;;;;;13.15;100.00;100632.19;5280463;28;20047;-82
2023/12/25 08:37:43;;;;;;;2.33;2.13;;;;;;;13.03;100.00;100623.72;5279813;28;20039;-82
2023/12/25 08:40:16;;;;;;;2.40;2.05;;;;;;;13.04;100.00;100627.16;5278326;28;20396;-82
2023/12/25 08:42:47;;;;;;;2.55;2.10;;;;;;;13.07;100.00;100632.94;5281180;28;20024;-82
2023/12/25 08:45:19;;;;;;;2.88;2.42;;;;;;;13.06;100.00;100640.97;5283045;28;20074;-82
2023/12/25 08:47:52;;;;;;;2.45;2.25;;;;;;;13.07;100.00;100642.66;5279727;28;20032;-82
2023/12/25 08:50:24;;;;;;;2.70;2.42;;;;;;;13.09;100.00;100638.03;5279252;28;20024;-82
2023/12/25 08:52:56;;;;;;;2.50;2.30;;;;;;;13.12;100.00;100654.34;5277691;28;20028;-83
2023/12/25 08:55:28;;;;;;;2.60;2.40;;;;;;;13.10;100.00;100653.66;5271668;28;20065;-82
2023/12/25 08:58:00;;;;;;;3.28;2.83;;;;;;;13.11;100.00;100665.84;5265237;28;20246;-82
2023/12/25 09:00:32;;;;;;;3.08;2.70;;;;;;;13.15;100.00;100672.47;5277057;28;20032;-82
2023/12/25 09:03:04;;;;;;;3.50;2.90;;;;;;;13.14;100.00;100651.56;5280776;28;20043;-82
2023/12/25 09:05:36;;;;;;;2.78;2.58;;;;;;;13.15;100.00;100646.16;5268352;28;20394;-83
2023/12/25 09:08:08;;;;;;;3.53;2.70;;;;;;;13.18;100.00;100645.00;5276500;28;20039;-83
2023/12/25 09:10:43;;;;;;;2.67;2.47;;;;;;;13.24;100.00;100649.72;5279358;28;20047;-82
2023/12/25 09:13:15;;;;;;;2.92;2.63;;;;;;;13.21;100.00;100654.41;5278250;28;20433;-83
2023/12/25 09:15:46;;;;;;;2.92;2.63;;;;;;;13.20;100.00;100650.97;5276980;28;20027;-83
2023/12/25 09:18:18;;;;;;;2.83;2.63;;;;;;;13.18;100.00;100658.16;5282276;28;20028;-82
2023/12/25 09:20:50;;;;;;;3.20;2.90;;;;;;;13.15;100.00;100669.03;5280097;28;20028;-82
2023/12/25 09:23:22;;;;;;;2.65;2.45;;;;;;;13.17;100.00;100672.31;5278423;28;20039;-82
2023/12/25 09:25:54;;;;;;;2.80;2.60;;;;;;;13.15;100.00;100676.91;5269740;28;20040;-82
2023/12/25 09:28:26;;;;;;;2.70;2.50;;;;;;;13.15;100.00;100695.31;5260731;28;20064;-82
2023/12/25 09:30:58;;;;;;;3.70;2.80;;;;;;;13.13;100.00;100692.00;5278087;28;20046;-82
2023/12/25 09:33:30;;;;;;;2.55;2.35;;;;;;;13.10;100.00;100697.56;5281712;28;20047;-82
2023/12/25 09:36:03;;;;;;;3.65;2.13;;;;;;;13.17;100.00;100709.13;5284833;28;20474;-82
2023/12/25 09:38:34;;;;;;;2.33;2.13;;;;;;;13.21;100.00;100714.91;5285208;28;20028;-82
2023/12/25 09:41:10;;;;;;;2.47;2.28;;;;;;;13.22;100.00;100712.16;5280913;28;20064;-82
2023/12/25 09:43:44;;;;;;;2.67;2.47;;;;;;;13.20;100.00;100721.16;5267284;28;20044;-82
2023/12/25 09:46:17;;;;;;;2.53;2.30;;;;;;;13.18;100.00;100716.03;5266871;28;20080;-81
2023/12/25 09:48:49;;;;;;;;;;;;;;;13.75;100.00;100726.25;5273474;28;20768;-82
2023/12/25 09:51:21;;;;;;;2.08;1.85;;;;;;;13.27;100.00;100723.09;5283299;28;19915;-82
2023/12/25 09:53:54;;;;;;;2.33;2.13;;;;;;;13.29;100.00;100704.50;5280929;28;20060;-82
2023/12/25 09:56:27;;;;;;;1.90;1.70;;;;;;;13.28;100.00;100703.69;5271943;28;20047;-82
2023/12/25 09:58:59;;;;;;;;;;;;;;;13.95;100.00;100701.38;5283143;28;20042;-82
2023/12/25 10:01:33;;;;;;;1.80;1.60;;;;;;;13.34;100.00;100702.25;5285794;28;21283;-82
2023/12/25 10:04:06;;;;;;;2.30;1.67;;;;;;;13.27;100.00;100701.22;5263545;28;20041;-81
2023/12/25 10:06:38;;;;;;;2.10;1.67;;;;;;;13.31;100.00;100702.56;5268211;28;20437;-82
2023/12/25 10:09:10;;;;;;;2.78;1.90;;;;;;;13.24;100.00;100707.59;5269072;28;20063;-82
2023/12/25 10:11:42;;;;;;;1.40;1.10;;;;;;;13.17;100.00;100706.50;5280693;28;20064;-81
2023/12/25 10:14:14;;;;;;;0.90;0.45;;;;;;;12.97;100.00;100726.03;5268220;28;20509;-81
2023/12/25 10:16:46;;;;;;;1.90;0.50;;;;;;;12.87;100.00;100726.91;5270583;28;20067;-81
2023/12/25 10:19:18;;;;;;;1.27;0.40;;;;;;;12.71;100.00;100715.41;5271323;28;20039;-81
2023/12/25 10:21:52;;;;;;;1.05;0.50;;;;;;;12.64;100.00;100729.13;5282069;28;20035;-82
2023/12/25 10:24:26;;;;;;;0.90;0.40;;;;;;;12.51;100.00;100720.75;5280176;28;20032;-82
2023/12/25 10:27:02;;;;;;;1.30;0.57;;;;;;;12.48;100.00;100743.88;5280688;28;20047;-82
2023/12/25 10:29:37;;;;;;;1.98;0.60;;;;;;;12.42;100.00;100732.13;5280286;28;20196;-82
2023/12/25 10:32:17;;;;;;;1.52;0.60;;;;;;;12.46;100.00;100722.16;5282129;28;20044;-82
2023/12/25 10:34:49;;;;;;;1.10;0.63;;;;;;;12.30;100.00;100720.16;5281244;28;20039;-83
2023/12/25 10:37:22;;;;;;;2.03;0.52;;;;;;;12.27;100.00;100734.38;5279759;28;20044;-82
2023/12/25 10:39:54;;;;;;;1.55;0.50;;;;;;;12.29;100.00;100721.13;5270220;28;20055;-82
2023/12/25 10:42:27;;;;;;;1.45;0.60;;;;;;;12.27;100.00;100716.00;5278220;28;20044;-82
2023/12/25 10:44:59;;;;;;;1.27;0.60;;;;;;;12.24;100.00;100718.94;5282945;28;20045;-82
2023/12/25 10:47:31;;;;;;;1.30;0.43;;;;;;;12.23;100.00;100734.81;5258461;28;20048;-81
2023/12/25 10:50:04;;;;;;;1.48;0.60;;;;;;;12.17;100.00;100725.75;5280526;28;20036;-82
2023/12/25 10:52:37;;;;;;;1.67;0.80;;;;;;;12.17;100.00;100734.44;5280446;28;20032;-82
2023/12/25 10:55:11;;;;;;;2.05;0.50;;;;;;;12.06;100.00;100723.28;5280887;28;20086;-82
2023/12/25 10:57:43;;;;;;;1.48;0.68;;;;;;;12.13;100.00;100730.44;5270894;28;20543;-82
2023/12/25 11:00:17;;;;;;;1.77;0.50;;;;;;;12.07;100.00;100722.31;5280681;28;20358;-82
2023/12/25 11:02:53;;;;;;;2.28;0.65;;;;;;;12.12;100.00;100715.66;5268635;28;20429;-82
2023/12/25 11:05:25;;;;;;;1.10;0.70;;;;;;;12.05;100.00;100729.50;5255477;28;20067;-82
2023/12/25 11:08:00;;;;;;;1.33;0.60;;;;;;;12.07;100.00;100722.31;5277112;28;20044;-82
2023/12/25 11:10:32;;;;;;;1.85;0.60;;;;;;;12.07;100.00;100733.63;5265168;28;20048;-82
2023/12/25 11:13:06;;;;;;;2.58;0.68;;;;;;;12.05;100.00;100737.38;5279823;28;20089;-83
2023/12/25 11:15:39;;;;;;;1.50;0.50;;;;;;;12.11;100.00;100748.13;5267199;28;20060;-82
2023/12/25 11:18:11;;;;;;;1.92;0.65;;;;;;;12.16;100.00;100737.22;5277534;28;20032;-82
2023/12/25 11:21:04;;;;;;;1.27;0.52;;;;;;;12.36;100.00;100743.22;5275234;28;20249;-82
2023/12/25 11:23:40;;;;;;;3.00;0.57;;;;;;;12.16;100.00;100743.28;5278916;28;20044;-82
2023/12/25 11:26:12;;;;;;;2.30;0.60;;;;;;;12.04;100.00;100726.03;5276900;28;20401;-82
2023/12/25 11:28:55;;;;;;;1.90;0.70;;;;;;;12.26;100.00;100711.72;5279941;28;20040;-82
2023/12/25 11:31:29;;;;;;;2.40;0.75;;;;;;;12.16;100.00;100717.03;5279216;28;20039;-82
2023/12/25 11:34:32;;;;;;;3.85;1.05;;;;;;;12.44;100.00;100729.38;5279293;28;20029;-83
2023/12/25 11:37:19;;;;;;;3.63;0.98;;;;;;;12.35;100.00;100725.78;5277287;28;20874;-82
2023/12/25 11:40:07;;;;;;;1.75;0.70;;;;;;;12.33;100.00;100727.75;5275036;28;20404;-82